createdAt,value
2023-02-19T00:01:48.586Z,69.88
2023-02-19T00:04:52.538Z,71.03
2023-02-19T00:07:56.309Z,70.31
2023-02-19T00:11:00.277Z,68.83
2023-02-19T00:14:04.413Z,69.35
2023-02-19T00:17:08.442Z,70.11
2023-02-19T00:20:12.260Z,69.76
2023-02-19T00:23:16.311Z,69.32
2023-02-19T00:26:20.342Z,69.47
2023-02-19T00:29:24.301Z,69.84
2023-02-19T00:32:28.274Z,71.25
2023-02-19T00:35:32.200Z,72.12
2023-02-19T00:38:36.231Z,70.60
2023-02-19T00:41:40.139Z,71.60
2023-02-19T00:44:44.183Z,72.31
2023-02-19T00:47:48.119Z,71.45
2023-02-19T00:50:52.531Z,72.02
2023-02-19T00:53:56.294Z,72.21
2023-02-19T00:57:00.520Z,72.69
2023-02-19T01:00:04.443Z,71.57
2023-02-19T01:03:08.434Z,71.15
2023-02-19T01:06:12.407Z,73.14
2023-02-19T01:09:16.425Z,72.00
2023-02-19T01:12:20.433Z,72.00
2023-02-19T01:15:24.368Z,71.64
2023-02-19T01:18:28.228Z,72.37
2023-02-19T01:21:32.192Z,71.33
2023-02-19T01:24:36.269Z,70.67
2023-02-19T01:27:40.144Z,72.70
2023-02-19T01:30:44.058Z,72.03
2023-02-19T01:33:48.089Z,71.17
2023-02-19T01:36:52.210Z,70.94
2023-02-19T01:39:56.127Z,70.28
2023-02-19T01:42:59.969Z,70.96
2023-02-19T01:46:04.038Z,70.23
2023-02-19T01:49:08.138Z,72.37
2023-02-19T01:52:12.297Z,73.70
2023-02-19T01:55:16.142Z,72.44
2023-02-19T01:58:20.193Z,71.24
2023-02-19T02:01:24.280Z,71.80
2023-02-19T02:04:28.253Z,72.72
2023-02-19T02:07:32.241Z,71.46
2023-02-19T02:10:35.965Z,72.61
2023-02-19T02:13:39.791Z,71.82
2023-02-19T02:16:43.840Z,71.19
2023-02-19T02:19:47.900Z,70.64
2023-02-19T02:22:51.682Z,71.53
2023-02-19T02:25:55.529Z,73.03
2023-02-19T02:28:59.546Z,73.03
2023-02-19T02:32:03.826Z,72.12
2023-02-19T02:35:07.596Z,73.00
2023-02-19T02:38:11.231Z,73.18
2023-02-19T02:41:15.261Z,75.11
2023-02-19T02:44:19.271Z,76.02
2023-02-19T02:47:23.207Z,75.88
2023-02-19T02:50:27.138Z,77.08
2023-02-19T02:53:31.086Z,74.20
2023-02-19T02:56:35.065Z,75.13
2023-02-19T02:59:39.074Z,75.85
2023-02-19T03:02:42.936Z,74.17
2023-02-19T03:05:46.932Z,74.20
2023-02-19T03:08:50.962Z,73.71
2023-02-19T03:11:54.815Z,73.23
2023-02-19T03:14:58.719Z,72.87
2023-02-19T03:18:02.598Z,72.42
2023-02-19T03:21:06.374Z,72.43
2023-02-19T03:24:10.374Z,71.73
2023-02-19T03:27:14.402Z,72.35
2023-02-19T03:30:18.405Z,74.69
2023-02-19T03:33:22.280Z,76.03
2023-02-19T03:36:26.341Z,74.25
2023-02-19T03:39:30.365Z,74.10
2023-02-19T03:42:34.406Z,75.16
2023-02-19T03:45:38.237Z,74.14
2023-02-19T03:48:42.195Z,73.56
2023-02-19T03:51:46.153Z,72.55
2023-02-19T03:54:50.106Z,71.40
2023-02-19T03:57:54.047Z,72.20
2023-02-19T04:00:57.876Z,74.06
2023-02-19T04:04:02.086Z,75.04
2023-02-19T04:07:06.328Z,74.91
2023-02-19T04:10:10.262Z,73.99
2023-02-19T04:13:14.114Z,74.44
2023-02-19T04:16:18.031Z,75.05
2023-02-19T04:19:22.265Z,73.53
2023-02-19T04:22:26.283Z,73.40
2023-02-19T04:25:30.008Z,72.85
2023-02-19T04:28:33.808Z,71.59
2023-02-19T04:31:37.916Z,71.40
2023-02-19T04:34:41.949Z,71.10
2023-02-19T04:37:45.883Z,70.74
2023-02-19T04:40:49.864Z,70.15
2023-02-19T04:43:53.630Z,69.41
2023-02-19T04:46:57.772Z,68.90
2023-02-19T04:50:01.793Z,68.98
2023-02-19T04:53:05.620Z,69.63
2023-02-19T04:56:10.551Z,69.60
2023-02-19T04:59:14.424Z,69.65
2023-02-19T05:02:18.568Z,69.94
2023-02-19T05:05:22.506Z,71.11
2023-02-19T05:08:26.274Z,69.53
2023-02-19T05:11:30.166Z,69.62
2023-02-19T05:14:34.290Z,69.68
2023-02-19T05:17:38.282Z,70.34
2023-02-19T05:20:41.972Z,69.84
2023-02-19T05:23:45.814Z,70.47
2023-02-19T05:26:49.793Z,72.32
2023-02-19T05:29:53.954Z,70.96
2023-02-19T05:32:57.927Z,70.34
2023-02-19T05:36:01.815Z,70.15
2023-02-19T05:39:05.809Z,70.22
2023-02-19T05:42:09.811Z,70.27
2023-02-19T05:45:13.367Z,69.91
2023-02-19T05:48:17.219Z,69.88
2023-02-19T05:51:21.155Z,71.46
2023-02-19T05:54:25.335Z,72.04
2023-02-19T05:57:29.261Z,72.29
2023-02-19T06:00:33.113Z,70.58
2023-02-19T06:03:37.138Z,69.38
2023-02-19T06:06:41.061Z,70.01
2023-02-19T06:09:45.119Z,70.05
2023-02-19T06:12:49.103Z,69.65
2023-02-19T06:15:53.013Z,68.95
2023-02-19T06:18:58.511Z,69.66
2023-02-19T06:22:02.478Z,70.79
2023-02-19T06:25:06.557Z,70.00
2023-02-19T06:28:10.534Z,69.93
2023-02-19T06:31:14.876Z,71.94
2023-02-19T06:34:18.902Z,74.13
2023-02-19T06:37:22.937Z,75.02
2023-02-19T06:40:26.992Z,74.27
2023-02-19T06:43:30.716Z,73.25
2023-02-19T06:46:34.699Z,72.64
2023-02-19T06:49:38.490Z,72.08
2023-02-19T06:52:42.536Z,71.25
2023-02-19T06:55:46.485Z,71.20
2023-02-19T06:58:50.765Z,73.01
2023-02-19T07:01:54.867Z,74.01
2023-02-19T07:04:59.072Z,72.26
2023-02-19T07:08:03.158Z,71.09
2023-02-19T07:11:07.049Z,70.93
2023-02-19T07:14:10.801Z,70.71
2023-02-19T07:17:15.109Z,69.72
2023-02-19T07:20:19.356Z,69.07
2023-02-19T07:23:23.317Z,68.67
2023-02-19T07:26:27.193Z,68.79
2023-02-19T07:29:31.166Z,68.07
2023-02-19T07:32:35.292Z,68.45
2023-02-19T07:35:39.171Z,68.10
2023-02-19T07:38:43.127Z,67.69
2023-02-19T07:41:47.092Z,69.21
2023-02-19T07:44:50.946Z,68.85
2023-02-19T07:47:54.940Z,68.96
2023-02-19T07:50:58.929Z,67.64
2023-02-19T07:54:03.077Z,67.05
2023-02-19T07:57:06.853Z,67.22
2023-02-19T08:00:10.859Z,68.10
2023-02-19T08:03:14.760Z,68.31
2023-02-19T08:06:18.728Z,67.24
2023-02-19T08:09:22.536Z,67.94
2023-02-19T08:12:26.492Z,66.41
2023-02-19T08:15:30.278Z,67.39
2023-02-19T08:18:34.238Z,66.19
2023-02-19T08:21:38.303Z,66.81
2023-02-19T08:24:42.149Z,66.33
2023-02-19T08:27:46.468Z,65.65
2023-02-19T08:30:50.489Z,65.92
2023-02-19T08:33:54.353Z,65.36
2023-02-19T08:36:58.212Z,65.14
2023-02-19T08:40:02.280Z,63.60
2023-02-19T08:43:06.385Z,62.30
2023-02-19T08:46:10.498Z,62.47
2023-02-19T08:49:14.614Z,62.17
2023-02-19T08:52:18.497Z,63.51
2023-02-19T08:55:22.585Z,64.09
2023-02-19T08:58:26.389Z,62.68
2023-02-19T09:01:30.116Z,64.29
2023-02-19T09:04:34.085Z,63.03
2023-02-19T09:07:38.043Z,62.43
2023-02-19T09:10:42.193Z,62.68
2023-02-19T09:13:46.083Z,62.83
2023-02-19T09:16:49.989Z,62.30
2023-02-19T09:19:54.090Z,61.53
2023-02-19T09:22:58.150Z,61.83
2023-02-19T09:26:02.043Z,60.41
2023-02-19T09:29:06.013Z,60.97
2023-02-19T09:32:10.269Z,60.28
2023-02-19T09:35:14.444Z,60.86
2023-02-19T09:38:18.620Z,61.27
2023-02-19T09:41:22.093Z,60.52
2023-02-19T09:44:26.058Z,60.50
2023-02-19T09:47:30.231Z,59.52
2023-02-19T09:50:34.203Z,59.67
2023-02-19T09:53:38.293Z,58.11
2023-02-19T09:56:42.518Z,58.05
2023-02-19T09:59:46.558Z,57.55
2023-02-19T10:02:50.654Z,60.32
2023-02-19T10:05:54.737Z,60.02
2023-02-19T10:08:58.620Z,61.65
2023-02-19T10:12:02.605Z,62.19
2023-02-19T10:15:06.555Z,61.56
2023-02-19T10:18:11.306Z,62.13
2023-02-19T10:21:15.681Z,62.64
2023-02-19T10:24:19.629Z,62.03
2023-02-19T10:27:23.422Z,61.74
2023-02-19T10:30:27.555Z,62.49
2023-02-19T10:33:31.373Z,61.48
2023-02-19T10:36:35.501Z,60.58
2023-02-19T10:39:39.426Z,61.45
2023-02-19T10:42:43.528Z,61.70
2023-02-19T10:45:47.683Z,62.20
2023-02-19T10:48:51.597Z,61.40
2023-02-19T10:51:55.479Z,61.45
2023-02-19T10:54:59.286Z,61.05
2023-02-19T10:58:03.317Z,60.88
2023-02-19T11:01:07.338Z,61.29
2023-02-19T11:04:11.204Z,60.75
2023-02-19T11:07:15.348Z,60.54
2023-02-19T11:10:19.380Z,61.19
2023-02-19T11:13:23.530Z,60.35
2023-02-19T11:16:27.605Z,59.87
2023-02-19T11:19:31.216Z,59.65
2023-02-19T11:22:35.358Z,59.69
2023-02-19T11:25:39.644Z,59.03
2023-02-19T11:28:43.462Z,59.92
2023-02-19T11:31:47.432Z,59.47
2023-02-19T11:34:51.256Z,58.62
2023-02-19T11:37:55.264Z,59.24
2023-02-19T11:40:59.374Z,60.21
2023-02-19T11:44:03.363Z,59.97
2023-02-19T11:47:07.275Z,59.53
2023-02-19T11:50:11.177Z,59.57
2023-02-19T11:53:15.277Z,58.45
2023-02-19T11:56:19.241Z,58.72
2023-02-19T11:59:23.159Z,59.29
2023-02-19T12:02:27.112Z,59.26
2023-02-19T12:05:30.997Z,59.95
2023-02-19T12:08:35.174Z,59.79
2023-02-19T12:11:39.349Z,59.17
2023-02-19T12:14:43.482Z,57.25
2023-02-19T12:17:47.283Z,56.54
2023-02-19T12:20:51.290Z,56.83
2023-02-19T12:23:55.085Z,59.78
2023-02-19T12:26:59.342Z,59.22
2023-02-19T12:30:03.301Z,59.87
2023-02-19T12:33:07.289Z,58.03
2023-02-19T12:36:11.638Z,59.79
2023-02-19T12:39:15.833Z,58.33
2023-02-19T12:42:19.729Z,58.16
2023-02-19T12:45:23.405Z,57.40
2023-02-19T12:48:27.544Z,53.97
2023-02-19T12:51:31.561Z,57.25
2023-02-19T12:54:35.354Z,56.38
2023-02-19T12:57:39.416Z,55.48
2023-02-19T13:00:44.464Z,55.66
2023-02-19T13:03:48.364Z,55.25
2023-02-19T13:06:52.415Z,55.49
2023-02-19T13:09:56.370Z,54.95
2023-02-19T13:13:00.233Z,54.69
2023-02-19T13:16:04.293Z,56.52
2023-02-19T13:19:08.354Z,56.89
2023-02-19T13:22:12.408Z,54.84
2023-02-19T13:25:16.354Z,53.82
2023-02-19T13:28:20.386Z,53.48
2023-02-19T13:31:26.109Z,52.38
2023-02-19T13:34:30.248Z,53.31
2023-02-19T13:37:33.958Z,52.06
2023-02-19T13:40:37.704Z,53.27
2023-02-19T13:43:41.850Z,52.49
2023-02-19T13:46:46.151Z,52.20
2023-02-19T13:49:52.236Z,52.25
2023-02-19T13:52:59.123Z,52.48
2023-02-19T13:56:03.346Z,51.58
2023-02-19T13:59:07.032Z,51.71
2023-02-19T14:02:11.021Z,52.25
2023-02-19T14:05:15.246Z,51.41
2023-02-19T14:08:19.112Z,51.49
2023-02-19T14:11:22.844Z,51.48
2023-02-19T14:14:26.865Z,51.54
2023-02-19T14:17:31.071Z,50.13
2023-02-19T14:20:35.152Z,50.73
2023-02-19T14:23:39.057Z,50.33
2023-02-19T14:26:43.097Z,49.86
2023-02-19T14:29:47.044Z,50.27
2023-02-19T14:32:54.511Z,50.06
2023-02-19T14:35:59.037Z,50.10
2023-02-19T14:39:02.949Z,49.74
2023-02-19T14:42:06.808Z,51.06
2023-02-19T14:45:10.872Z,51.07
2023-02-19T14:48:15.358Z,51.41
2023-02-19T14:51:19.461Z,52.24
2023-02-19T14:54:23.491Z,52.62
2023-02-19T14:57:27.447Z,53.35
2023-02-19T15:00:31.614Z,52.94
2023-02-19T15:03:35.799Z,52.71
2023-02-19T15:06:39.861Z,52.27
2023-02-19T15:09:43.946Z,52.33
2023-02-19T15:12:47.846Z,52.36
2023-02-19T15:15:51.948Z,51.58
2023-02-19T15:18:55.996Z,51.44
2023-02-19T15:22:00.178Z,50.96
2023-02-19T15:25:03.894Z,51.41
2023-02-19T15:28:07.876Z,51.14
2023-02-19T15:31:12.165Z,50.61
2023-02-19T15:34:16.288Z,50.69
2023-02-19T15:37:20.182Z,51.01
2023-02-19T15:40:24.152Z,50.74
2023-02-19T15:43:27.974Z,50.74
2023-02-19T15:46:32.116Z,50.40
2023-02-19T15:49:35.970Z,50.94
2023-02-19T15:52:39.760Z,49.97
2023-02-19T15:55:43.604Z,50.52
2023-02-19T15:58:47.796Z,50.53
2023-02-19T16:01:51.939Z,50.08
2023-02-19T16:04:55.907Z,50.10
2023-02-19T16:07:59.892Z,50.37
2023-02-19T16:11:03.887Z,50.13
2023-02-19T16:14:07.812Z,48.57
2023-02-19T16:17:11.623Z,49.13
2023-02-19T16:20:15.451Z,50.05
2023-02-19T16:23:19.759Z,48.80
2023-02-19T16:26:24.037Z,49.28
2023-02-19T16:29:28.188Z,50.88
2023-02-19T16:32:32.135Z,50.38
2023-02-19T16:35:36.060Z,50.07
2023-02-19T16:38:39.936Z,50.56
2023-02-19T16:41:43.761Z,52.77
2023-02-19T16:44:47.612Z,51.00
2023-02-19T16:47:51.474Z,52.12
2023-02-19T16:50:55.776Z,51.33
2023-02-19T16:53:59.685Z,51.16
2023-02-19T16:57:03.732Z,51.70
2023-02-19T17:00:07.776Z,53.28
2023-02-19T17:03:11.671Z,54.33
2023-02-19T17:06:15.698Z,53.78
2023-02-19T17:09:19.638Z,54.68
2023-02-19T17:12:23.260Z,54.21
2023-02-19T17:15:27.972Z,54.89
2023-02-19T17:18:31.955Z,54.17
2023-02-19T17:21:35.808Z,55.14
2023-02-19T17:24:39.976Z,54.45
2023-02-19T17:27:43.610Z,54.50
2023-02-19T17:30:49.365Z,55.10
2023-02-19T17:33:53.596Z,55.03
2023-02-19T17:36:57.423Z,55.61
2023-02-19T17:40:01.619Z,55.70
2023-02-19T17:43:05.507Z,56.43
2023-02-19T17:46:09.335Z,56.20
2023-02-19T17:49:13.571Z,55.62
2023-02-19T17:52:17.450Z,55.37
2023-02-19T17:55:22.783Z,55.35
2023-02-19T17:58:27.717Z,55.62
2023-02-19T18:01:31.706Z,55.08
2023-02-19T18:04:37.009Z,56.09
2023-02-19T18:07:42.904Z,55.52
2023-02-19T18:10:47.347Z,56.80
2023-02-19T18:13:51.542Z,56.77
2023-02-19T18:16:55.465Z,56.09
2023-02-19T18:19:59.690Z,56.73
2023-02-19T18:23:03.612Z,56.65
2023-02-19T18:26:07.586Z,57.26
2023-02-19T18:29:11.991Z,56.07
2023-02-19T18:32:18.786Z,56.57
2023-02-19T18:35:22.797Z,56.26
2023-02-19T18:38:29.071Z,56.22
2023-02-19T18:41:56.169Z,55.42
2023-02-19T18:44:58.243Z,55.91
2023-02-19T18:48:02.021Z,55.06
2023-02-19T18:51:05.786Z,55.05
2023-02-19T18:54:09.908Z,54.30
2023-02-19T18:57:13.569Z,54.65
2023-02-19T19:00:17.862Z,55.38
2023-02-19T19:03:22.312Z,54.93
2023-02-19T19:06:26.224Z,54.55
2023-02-19T19:09:30.152Z,54.27
2023-02-19T19:12:34.325Z,54.56
2023-02-19T19:15:38.425Z,56.53
2023-02-19T19:18:42.631Z,56.14
2023-02-19T19:21:46.609Z,55.93
2023-02-19T19:24:50.349Z,56.67
2023-02-19T19:27:54.138Z,55.34
2023-02-19T19:31:01.544Z,54.79
2023-02-19T19:34:05.834Z,53.90
2023-02-19T19:37:09.737Z,54.39
2023-02-19T19:40:13.386Z,54.05
2023-02-19T19:43:17.492Z,54.12
2023-02-19T19:46:21.936Z,54.18
2023-02-19T19:49:26.145Z,55.04
2023-02-19T19:52:29.991Z,55.16
2023-02-19T19:55:33.721Z,54.67
2023-02-19T19:58:37.672Z,55.98
2023-02-19T20:01:41.587Z,56.54
2023-02-19T20:04:45.568Z,56.48
2023-02-19T20:07:49.517Z,56.51
2023-02-19T20:10:53.377Z,56.62
2023-02-19T20:13:57.272Z,58.27
2023-02-19T20:17:01.589Z,59.18
2023-02-19T20:20:05.428Z,58.75
2023-02-19T20:23:09.271Z,58.51
2023-02-19T20:26:13.266Z,60.57
2023-02-19T20:29:17.224Z,60.19
2023-02-19T20:32:21.315Z,60.23
2023-02-19T20:35:26.485Z,61.07
2023-02-19T20:38:30.677Z,60.15
2023-02-19T20:41:35.001Z,59.38
2023-02-19T20:44:38.881Z,59.78
2023-02-19T20:47:42.499Z,59.98
2023-02-19T20:50:46.581Z,60.99
2023-02-19T20:53:51.125Z,62.32
2023-02-19T20:56:55.155Z,60.39
2023-02-19T20:59:59.288Z,60.03
2023-02-19T21:03:03.579Z,59.57
2023-02-19T21:06:07.502Z,59.66
2023-02-19T21:09:11.687Z,59.22
2023-02-19T21:12:15.991Z,58.77
2023-02-19T21:15:20.015Z,59.02
2023-02-19T21:18:24.084Z,58.89
2023-02-19T21:21:28.002Z,58.85
2023-02-19T21:24:32.434Z,58.84
2023-02-19T21:27:36.447Z,59.36
2023-02-19T21:30:41.707Z,60.74
2023-02-19T21:33:45.851Z,60.22
2023-02-19T21:36:49.606Z,61.11
2023-02-19T21:39:54.027Z,60.73
2023-02-19T21:42:58.198Z,60.76
2023-02-19T21:46:02.403Z,61.25
2023-02-19T21:49:06.636Z,61.12
2023-02-19T21:52:10.807Z,62.43
2023-02-19T21:55:15.160Z,63.59
2023-02-19T21:58:19.308Z,62.21
2023-02-19T22:01:23.049Z,61.17
2023-02-19T22:04:29.270Z,60.26
2023-02-19T22:07:33.446Z,60.41
2023-02-19T22:10:37.368Z,60.37
2023-02-19T22:13:41.592Z,60.58
2023-02-19T22:16:45.356Z,60.63
2023-02-19T22:19:49.394Z,62.33
2023-02-19T22:22:53.356Z,61.17
2023-02-19T22:25:57.270Z,63.95
2023-02-19T22:29:01.411Z,64.85
2023-02-19T22:32:06.691Z,65.01
2023-02-19T22:35:15.692Z,65.00
2023-02-19T22:38:19.936Z,64.57
2023-02-19T22:41:23.696Z,63.40
2023-02-19T22:44:27.860Z,62.80
2023-02-19T22:47:34.021Z,62.71
2023-02-19T22:50:37.987Z,62.16
2023-02-19T22:53:43.052Z,63.73
2023-02-19T22:56:47.314Z,63.53
2023-02-19T22:59:51.607Z,63.88
2023-02-19T23:02:56.360Z,64.69
2023-02-19T23:06:00.463Z,62.81
2023-02-19T23:09:04.347Z,62.25
2023-02-19T23:12:08.278Z,62.92
2023-02-19T23:15:13.647Z,64.04
2023-02-19T23:18:17.825Z,63.92
2023-02-19T23:21:21.357Z,62.34
2023-02-19T23:24:25.391Z,64.07
2023-02-19T23:27:29.787Z,64.74
2023-02-19T23:30:33.788Z,62.29
2023-02-19T23:33:37.760Z,62.96
2023-02-19T23:36:41.820Z,63.39
2023-02-19T23:39:45.752Z,63.90
2023-02-19T23:42:49.669Z,63.09
2023-02-19T23:45:53.967Z,63.05
2023-02-19T23:48:57.928Z,63.34
2023-02-19T23:52:01.830Z,63.17
2023-02-19T23:55:05.830Z,62.14
2023-02-19T23:58:09.946Z,63.28
